sensor_id;sensor_type;location;lat;lon;timestamp;pressure;altitude;pressure_sealevel;temperature;humidity
37202;BME280;37799;52.390;6.136;2024-02-26T00:01:23;100087.47;;;4.41;100.00
37202;BME280;37799;52.390;6.136;2024-02-26T00:03:48;100092.63;;;4.40;100.00
37202;BME280;37799;52.390;6.136;2024-02-26T00:06:14;100081.34;;;4.52;100.00
37202;BME280;37799;52.390;6.136;2024-02-26T00:08:39;100085.84;;;4.36;100.00
37202;BME280;37799;52.390;6.136;2024-02-26T00:11:04;100086.69;;;4.36;100.00
37202;BME280;37799;52.390;6.136;2024-02-26T00:13:29;100090.03;;;4.41;100.00
37202;BME280;37799;52.390;6.136;2024-02-26T00:15:55;100085.00;;;4.34;100.00
37202;BME280;37799;52.390;6.136;2024-02-26T00:18:20;100085.06;;;4.31;100.00
37202;BME280;37799;52.390;6.136;2024-02-26T00:20:45;100092.72;;;4.32;100.00
37202;BME280;37799;52.390;6.136;2024-02-26T00:23:11;100098.81;;;4.24;100.00
37202;BME280;37799;52.390;6.136;2024-02-26T00:25:36;100096.25;;;4.24;100.00
37202;BME280;37799;52.390;6.136;2024-02-26T00:28:04;100101.44;;;4.16;100.00
37202;BME280;37799;52.390;6.136;2024-02-26T00:30:29;100099.72;;;4.17;100.00
37202;BME280;37799;52.390;6.136;2024-02-26T00:32:54;100105.72;;;4.19;100.00
37202;BME280;37799;52.390;6.136;2024-02-26T00:35:20;100100.59;;;4.19;100.00
37202;BME280;37799;52.390;6.136;2024-02-26T00:37:45;100101.41;;;4.21;100.00
37202;BME280;37799;52.390;6.136;2024-02-26T00:40:11;100115.09;;;4.17;100.00
37202;BME280;37799;52.390;6.136;2024-02-26T00:42:36;100111.78;;;4.10;100.00
37202;BME280;37799;52.390;6.136;2024-02-26T00:45:02;100108.28;;;4.19;100.00
37202;BME280;37799;52.390;6.136;2024-02-26T00:47:27;100109.25;;;4.07;100.00
37202;BME280;37799;52.390;6.136;2024-02-26T00:49:52;100104.22;;;3.98;100.00
37202;BME280;37799;52.390;6.136;2024-02-26T00:52:18;100117.06;;;3.96;100.00
37202;BME280;37799;52.390;6.136;2024-02-26T00:54:43;100106.94;;;3.84;100.00
37202;BME280;37799;52.390;6.136;2024-02-26T00:57:08;100110.41;;;3.77;100.00
37202;BME280;37799;52.390;6.136;2024-02-26T00:59:33;100117.09;;;3.93;100.00
37202;BME280;37799;52.390;6.136;2024-02-26T01:01:59;100112.13;;;3.76;100.00
37202;BME280;37799;52.390;6.136;2024-02-26T01:04:27;100120.72;;;3.71;100.00
37202;BME280;37799;52.390;6.136;2024-02-26T01:06:52;100125.88;;;3.68;100.00
37202;BME280;37799;52.390;6.136;2024-02-26T01:09:17;100121.69;;;3.59;100.00
37202;BME280;37799;52.390;6.136;2024-02-26T01:11:43;100122.59;;;3.53;100.00
37202;BME280;37799;52.390;6.136;2024-02-26T01:14:08;100127.56;;;3.69;100.00
37202;BME280;37799;52.390;6.136;2024-02-26T01:16:34;100126.88;;;3.53;100.00
37202;BME280;37799;52.390;6.136;2024-02-26T01:18:59;100118.50;;;3.31;100.00
37202;BME280;37799;52.390;6.136;2024-02-26T01:21:24;100119.31;;;3.36;100.00
37202;BME280;37799;52.390;6.136;2024-02-26T01:23:50;100115.16;;;3.26;100.00
37202;BME280;37799;52.390;6.136;2024-02-26T01:26:15;100119.41;;;3.24;100.00
37202;BME280;37799;52.390;6.136;2024-02-26T01:28:40;100116.09;;;3.13;100.00
37202;BME280;37799;52.390;6.136;2024-02-26T01:31:06;100119.50;;;3.15;100.00
37202;BME280;37799;52.390;6.136;2024-02-26T01:33:33;100122.94;;;3.08;100.00
37202;BME280;37799;52.390;6.136;2024-02-26T01:35:58;100116.97;;;3.07;100.00
37202;BME280;37799;52.390;6.136;2024-02-26T01:38:25;100116.13;;;3.07;100.00
37202;BME280;37799;52.390;6.136;2024-02-26T01:40:51;100114.44;;;3.06;100.00
37202;BME280;37799;52.390;6.136;2024-02-26T01:43:16;100105.09;;;3.02;100.00
37202;BME280;37799;52.390;6.136;2024-02-26T01:45:42;100098.19;;;3.10;100.00
37202;BME280;37799;52.390;6.136;2024-02-26T01:48:07;100106.81;;;3.00;100.00
37202;BME280;37799;52.390;6.136;2024-02-26T01:50:33;100097.34;;;3.08;100.00
37202;BME280;37799;52.390;6.136;2024-02-26T01:52:59;100104.19;;;3.07;100.00
37202;BME280;37799;52.390;6.136;2024-02-26T01:55:26;100096.47;;;3.12;100.00
37202;BME280;37799;52.390;6.136;2024-02-26T01:57:51;100101.56;;;3.18;100.00
37202;BME280;37799;52.390;6.136;2024-02-26T02:00:18;100093.91;;;3.15;100.00
37202;BME280;37799;52.390;6.136;2024-02-26T02:02:44;100101.66;;;3.03;100.00
37202;BME280;37799;52.390;6.136;2024-02-26T02:05:12;100098.94;;;3.24;100.00
37202;BME280;37799;52.390;6.136;2024-02-26T02:07:40;100098.19;;;3.13;100.00
37202;BME280;37799;52.390;6.136;2024-02-26T02:10:06;100100.75;;;3.13;100.00
37202;BME280;37799;52.390;6.136;2024-02-26T02:12:32;100106.59;;;3.24;100.00
37202;BME280;37799;52.390;6.136;2024-02-26T02:14:59;100110.97;;;3.13;100.00
37202;BME280;37799;52.390;6.136;2024-02-26T02:17:26;100118.59;;;3.19;100.00
37202;BME280;37799;52.390;6.136;2024-02-26T02:19:52;100127.16;;;3.10;100.00
37202;BME280;37799;52.390;6.136;2024-02-26T02:22:17;100125.34;;;3.24;100.00
37202;BME280;37799;52.390;6.136;2024-02-26T02:24:43;100136.44;;;3.25;100.00
37202;BME280;37799;52.390;6.136;2024-02-26T02:27:08;100137.22;;;3.36;100.00
37202;BME280;37799;52.390;6.136;2024-02-26T02:29:34;100138.16;;;3.26;100.00
37202;BME280;37799;52.390;6.136;2024-02-26T02:32:01;100141.47;;;3.40;100.00
37202;BME280;37799;52.390;6.136;2024-02-26T02:34:27;100147.44;;;3.36;100.00
37202;BME280;37799;52.390;6.136;2024-02-26T02:36:53;100141.56;;;3.28;100.00
37202;BME280;37799;52.390;6.136;2024-02-26T02:39:18;100129.63;;;3.27;100.00
37202;BME280;37799;52.390;6.136;2024-02-26T02:41:44;100132.78;;;3.58;100.00
37202;BME280;37799;52.390;6.136;2024-02-26T02:44:09;100138.94;;;3.36;100.00
37202;BME280;37799;52.390;6.136;2024-02-26T02:46:35;100148.31;;;3.40;100.00
37202;BME280;37799;52.390;6.136;2024-02-26T02:49:00;100151.63;;;3.52;100.00
37202;BME280;37799;52.390;6.136;2024-02-26T02:51:26;100144.88;;;3.42;100.00
37202;BME280;37799;52.390;6.136;2024-02-26T02:53:51;100154.19;;;3.48;100.00
37202;BME280;37799;52.390;6.136;2024-02-26T02:56:16;100151.75;;;3.34;100.00
37202;BME280;37799;52.390;6.136;2024-02-26T02:58:41;100142.38;;;3.33;100.00
37202;BME280;37799;52.390;6.136;2024-02-26T03:01:07;100151.72;;;3.40;100.00
37202;BME280;37799;52.390;6.136;2024-02-26T03:03:32;100155.13;;;3.36;100.00
37202;BME280;37799;52.390;6.136;2024-02-26T03:05:57;100153.41;;;3.38;100.00
37202;BME280;37799;52.390;6.136;2024-02-26T03:08:24;100166.91;;;3.59;100.00
37202;BME280;37799;52.390;6.136;2024-02-26T03:10:51;100162.69;;;3.53;100.00
37202;BME280;37799;52.390;6.136;2024-02-26T03:13:16;100161.75;;;3.63;100.00
37202;BME280;37799;52.390;6.136;2024-02-26T03:15:41;100159.28;;;3.52;100.00
37202;BME280;37799;52.390;6.136;2024-02-26T03:18:07;100162.66;;;3.58;100.00
37202;BME280;37799;52.390;6.136;2024-02-26T03:20:32;100160.91;;;3.60;100.00
37202;BME280;37799;52.390;6.136;2024-02-26T03:22:58;100170.19;;;3.73;100.00
37202;BME280;37799;52.390;6.136;2024-02-26T03:25:23;100176.31;;;3.58;100.00
37202;BME280;37799;52.390;6.136;2024-02-26T03:27:48;100176.06;;;3.84;100.00
37202;BME280;37799;52.390;6.136;2024-02-26T03:30:14;100184.75;;;3.69;100.00
37202;BME280;37799;52.390;6.136;2024-02-26T03:32:39;100182.97;;;3.76;100.00
37202;BME280;37799;52.390;6.136;2024-02-26T03:35:05;100198.34;;;3.74;100.00
37202;BME280;37799;52.390;6.136;2024-02-26T03:37:30;100200.94;;;3.71;100.00
37202;BME280;37799;52.390;6.136;2024-02-26T03:39:55;100201.88;;;3.60;100.00
37202;BME280;37799;52.390;6.136;2024-02-26T03:42:22;100200.09;;;3.69;100.00
37202;BME280;37799;52.390;6.136;2024-02-26T03:44:47;100212.09;;;3.61;100.00
37202;BME280;37799;52.390;6.136;2024-02-26T03:47:12;100212.13;;;3.58;100.00
37202;BME280;37799;52.390;6.136;2024-02-26T03:49:38;100207.06;;;3.50;100.00
37202;BME280;37799;52.390;6.136;2024-02-26T03:52:03;100206.09;;;3.67;100.00
37202;BME280;37799;52.390;6.136;2024-02-26T03:54:29;100206.09;;;3.64;100.00
37202;BME280;37799;52.390;6.136;2024-02-26T03:56:54;100204.41;;;3.64;100.00
37202;BME280;37799;52.390;6.136;2024-02-26T03:59:19;100205.16;;;3.80;100.00
37202;BME280;37799;52.390;6.136;2024-02-26T04:01:47;100205.09;;;3.86;100.00
37202;BME280;37799;52.390;6.136;2024-02-26T04:04:12;100213.75;;;3.70;100.00
37202;BME280;37799;52.390;6.136;2024-02-26T04:06:38;100223.16;;;3.68;100.00
37202;BME280;37799;52.390;6.136;2024-02-26T04:09:03;100217.06;;;3.84;100.00
37202;BME280;37799;52.390;6.136;2024-02-26T04:11:29;100215.25;;;3.95;100.00
37202;BME280;37799;52.390;6.136;2024-02-26T04:13:54;100219.66;;;3.81;100.00
37202;BME280;37799;52.390;6.136;2024-02-26T04:16:20;100227.25;;;3.89;100.00
37202;BME280;37799;52.390;6.136;2024-02-26T04:18:45;100228.84;;;4.05;100.00
37202;BME280;37799;52.390;6.136;2024-02-26T04:21:10;100227.09;;;4.07;100.00
37202;BME280;37799;52.390;6.136;2024-02-26T04:23:36;100229.75;;;3.96;100.00
37202;BME280;37799;52.390;6.136;2024-02-26T04:26:01;100234.84;;;3.99;100.00
37202;BME280;37799;52.390;6.136;2024-02-26T04:28:26;100237.41;;;3.99;100.00
37202;BME280;37799;52.390;6.136;2024-02-26T04:30:54;100233.25;;;3.88;100.00
37202;BME280;37799;52.390;6.136;2024-02-26T04:33:19;100241.75;;;3.88;100.00
37202;BME280;37799;52.390;6.136;2024-02-26T04:35:45;100234.91;;;3.90;100.00
37202;BME280;37799;52.390;6.136;2024-02-26T04:38:10;100240.91;;;3.92;100.00
37202;BME280;37799;52.390;6.136;2024-02-26T04:40:35;100245.88;;;4.07;100.00
37202;BME280;37799;52.390;6.136;2024-02-26T04:43:01;100250.19;;;4.05;100.00
37202;BME280;37799;52.390;6.136;2024-02-26T04:45:26;100244.16;;;4.09;100.00
37202;BME280;37799;52.390;6.136;2024-02-26T04:47:51;100259.50;;;4.12;100.00
37202;BME280;37799;52.390;6.136;2024-02-26T04:50:16;100250.88;;;4.23;100.00
37202;BME280;37799;52.390;6.136;2024-02-26T04:52:42;100259.47;;;4.15;100.00
37202;BME280;37799;52.390;6.136;2024-02-26T04:55:07;100258.69;;;4.07;100.00
37202;BME280;37799;52.390;6.136;2024-02-26T04:57:33;100262.00;;;4.20;100.00
37202;BME280;37799;52.390;6.136;2024-02-26T04:59:58;100265.44;;;4.18;100.00
37202;BME280;37799;52.390;6.136;2024-02-26T05:02:24;100269.75;;;4.12;100.00
37202;BME280;37799;52.390;6.136;2024-02-26T05:04:49;100262.06;;;4.12;100.00
37202;BME280;37799;52.390;6.136;2024-02-26T05:07:15;100269.63;;;4.26;100.00
37202;BME280;37799;52.390;6.136;2024-02-26T05:09:42;100273.94;;;4.21;100.00
37202;BME280;37799;52.390;6.136;2024-02-26T05:12:09;100279.16;;;4.10;100.00
37202;BME280;37799;52.390;6.136;2024-02-26T05:14:34;100283.38;;;4.14;100.00
37202;BME280;37799;52.390;6.136;2024-02-26T05:16:59;100283.38;;;4.14;100.00
37202;BME280;37799;52.390;6.136;2024-02-26T05:19:25;100278.25;;;4.16;100.00
37202;BME280;37799;52.390;6.136;2024-02-26T05:21:50;100280.84;;;4.11;100.00
37202;BME280;37799;52.390;6.136;2024-02-26T05:24:16;100280.75;;;4.24;100.00
37202;BME280;37799;52.390;6.136;2024-02-26T05:26:43;100277.28;;;4.28;100.00
37202;BME280;37799;52.390;6.136;2024-02-26T05:29:08;100278.25;;;4.19;100.00
37202;BME280;37799;52.390;6.136;2024-02-26T05:31:33;100281.63;;;4.21;100.00
37202;BME280;37799;52.390;6.136;2024-02-26T05:33:59;100278.16;;;4.27;100.00
37202;BME280;37799;52.390;6.136;2024-02-26T05:36:24;100279.88;;;4.25;100.00
37202;BME280;37799;52.390;6.136;2024-02-26T05:38:50;100282.44;;;4.26;100.00
37202;BME280;37799;52.390;6.136;2024-02-26T05:41:16;100289.25;;;4.29;100.00
37202;BME280;37799;52.390;6.136;2024-02-26T05:43:45;100288.47;;;4.22;100.00
37202;BME280;37799;52.390;6.136;2024-02-26T05:46:10;100294.50;;;4.13;100.00
37202;BME280;37799;52.390;6.136;2024-02-26T05:48:36;100303.06;;;4.11;100.00
37202;BME280;37799;52.390;6.136;2024-02-26T05:51:01;100302.28;;;4.03;100.00
37202;BME280;37799;52.390;6.136;2024-02-26T05:53:26;100307.28;;;4.15;100.00
37202;BME280;37799;52.390;6.136;2024-02-26T05:55:52;100309.88;;;4.13;100.00
37202;BME280;37799;52.390;6.136;2024-02-26T05:58:17;100307.28;;;4.17;100.00
37202;BME280;37799;52.390;6.136;2024-02-26T06:00:42;100312.53;;;4.04;100.00
37202;BME280;37799;52.390;6.136;2024-02-26T06:03:07;100315.78;;;4.23;100.00
37202;BME280;37799;52.390;6.136;2024-02-26T06:05:33;100322.56;;;4.29;100.00
37202;BME280;37799;52.390;6.136;2024-02-26T06:07:58;100332.78;;;4.33;100.00
37202;BME280;37799;52.390;6.136;2024-02-26T06:10:23;100335.38;;;4.32;100.00
37202;BME280;37799;52.390;6.136;2024-02-26T06:12:49;100332.06;;;4.18;100.00
37202;BME280;37799;52.390;6.136;2024-02-26T06:15:14;100332.03;;;4.21;100.00
37202;BME280;37799;52.390;6.136;2024-02-26T06:17:39;100330.28;;;4.24;100.00
37202;BME280;37799;52.390;6.136;2024-02-26T06:20:05;100344.88;;;4.18;100.00
37202;BME280;37799;52.390;6.136;2024-02-26T06:22:31;100342.22;;;4.30;100.00
37202;BME280;37799;52.390;6.136;2024-02-26T06:24:57;100353.41;;;4.21;100.00
37202;BME280;37799;52.390;6.136;2024-02-26T06:27:23;100359.41;;;4.14;100.00
37202;BME280;37799;52.390;6.136;2024-02-26T06:29:49;100350.88;;;4.13;100.00
37202;BME280;37799;52.390;6.136;2024-02-26T06:32:14;100353.53;;;4.00;100.00
37202;BME280;37799;52.390;6.136;2024-02-26T06:34:39;100357.78;;;4.02;100.00
37202;BME280;37799;52.390;6.136;2024-02-26T06:37:07;100366.31;;;4.01;100.00
37202;BME280;37799;52.390;6.136;2024-02-26T06:39:32;100354.28;;;4.17;100.00
37202;BME280;37799;52.390;6.136;2024-02-26T06:41:58;100357.72;;;4.11;100.00
37202;BME280;37799;52.390;6.136;2024-02-26T06:44:26;100360.09;;;4.37;100.00
37202;BME280;37799;52.390;6.136;2024-02-26T06:46:57;100360.03;;;4.47;100.00
37202;BME280;37799;52.390;6.136;2024-02-26T06:49:22;100364.53;;;4.19;100.00
37202;BME280;37799;52.390;6.136;2024-02-26T06:51:47;100362.72;;;4.27;100.00
37202;BME280;37799;52.390;6.136;2024-02-26T06:54:12;100373.84;;;4.30;100.00
37202;BME280;37799;52.390;6.136;2024-02-26T06:56:38;100367.75;;;4.39;100.00
37202;BME280;37799;52.390;6.136;2024-02-26T06:59:03;100372.06;;;4.35;100.00
37202;BME280;37799;52.390;6.136;2024-02-26T07:01:28;100372.81;;;4.48;100.00
37202;BME280;37799;52.390;6.136;2024-02-26T07:03:53;100368.59;;;4.44;100.00
37202;BME280;37799;52.390;6.136;2024-02-26T07:06:19;100379.78;;;4.34;100.00
37202;BME280;37799;52.390;6.136;2024-02-26T07:08:44;100383.13;;;4.39;100.00
37202;BME280;37799;52.390;6.136;2024-02-26T07:11:10;100396.69;;;4.53;100.00
37202;BME280;37799;52.390;6.136;2024-02-26T07:13:35;100395.88;;;4.51;100.00
37202;BME280;37799;52.390;6.136;2024-02-26T07:16:01;100383.84;;;4.55;100.00
37202;BME280;37799;52.390;6.136;2024-02-26T07:18:26;100403.53;;;4.54;100.00
37202;BME280;37799;52.390;6.136;2024-02-26T07:20:51;100411.25;;;4.51;100.00
37202;BME280;37799;52.390;6.136;2024-02-26T07:23:16;100414.59;;;4.61;100.00
37202;BME280;37799;52.390;6.136;2024-02-26T07:25:42;100418.03;;;4.55;100.00
37202;BME280;37799;52.390;6.136;2024-02-26T07:28:09;100400.09;;;4.55;100.00
37202;BME280;37799;52.390;6.136;2024-02-26T07:30:35;100411.22;;;4.57;100.00
37202;BME280;37799;52.390;6.136;2024-02-26T07:33:00;100414.56;;;4.62;100.00
37202;BME280;37799;52.390;6.136;2024-02-26T07:35:25;100409.50;;;4.58;100.00
37202;BME280;37799;52.390;6.136;2024-02-26T07:37:52;100407.84;;;4.51;100.00
37202;BME280;37799;52.390;6.136;2024-02-26T07:40:17;100418.91;;;4.54;100.00
37202;BME280;37799;52.390;6.136;2024-02-26T07:42:43;100415.38;;;4.70;100.00
37202;BME280;37799;52.390;6.136;2024-02-26T07:45:09;100423.06;;;4.72;100.00
37202;BME280;37799;52.390;6.136;2024-02-26T07:47:35;100423.97;;;4.62;100.00
37202;BME280;37799;52.390;6.136;2024-02-26T07:50:01;100428.25;;;4.61;100.00
37202;BME280;37799;52.390;6.136;2024-02-26T07:52:26;100424.84;;;4.61;100.00
37202;BME280;37799;52.390;6.136;2024-02-26T07:54:51;100426.38;;;4.80;100.00
37202;BME280;37799;52.390;6.136;2024-02-26T07:57:17;100430.66;;;4.80;100.00
37202;BME280;37799;52.390;6.136;2024-02-26T07:59:42;100436.75;;;4.68;100.00
37202;BME280;37799;52.390;6.136;2024-02-26T08:02:08;100434.19;;;4.66;100.00
37202;BME280;37799;52.390;6.136;2024-02-26T08:04:33;100439.16;;;4.88;100.00
37202;BME280;37799;52.390;6.136;2024-02-26T08:06:58;100436.72;;;4.74;100.00
37202;BME280;37799;52.390;6.136;2024-02-26T08:09:23;100442.66;;;4.78;100.00
37202;BME280;37799;52.390;6.136;2024-02-26T08:11:49;100451.31;;;4.64;100.00
37202;BME280;37799;52.390;6.136;2024-02-26T08:14:14;100453.81;;;4.73;100.00
37202;BME280;37799;52.390;6.136;2024-02-26T08:16:39;100456.31;;;4.80;100.00
37202;BME280;37799;52.390;6.136;2024-02-26T08:19:05;100456.41;;;4.70;100.00
37202;BME280;37799;52.390;6.136;2024-02-26T08:21:30;100462.38;;;4.72;100.00
37202;BME280;37799;52.390;6.136;2024-02-26T08:23:57;100465.72;;;4.81;100.00
37202;BME280;37799;52.390;6.136;2024-02-26T08:26:23;100456.16;;;4.98;100.00
37202;BME280;37799;52.390;6.136;2024-02-26T08:28:49;100469.91;;;4.91;100.00
37202;BME280;37799;52.390;6.136;2024-02-26T08:31:16;100484.38;;;4.99;100.00
37202;BME280;37799;52.390;6.136;2024-02-26T08:33:41;100479.41;;;4.78;100.00
37202;BME280;37799;52.390;6.136;2024-02-26T08:36:07;100468.13;;;5.00;100.00
37202;BME280;37799;52.390;6.136;2024-02-26T08:38:33;100480.91;;;5.03;100.00
37202;BME280;37799;52.390;6.136;2024-02-26T08:41:01;100476.63;;;5.04;100.00
37202;BME280;37799;52.390;6.136;2024-02-26T08:43:26;100477.50;;;5.01;100.00
37202;BME280;37799;52.390;6.136;2024-02-26T08:45:52;100478.28;;;5.11;100.00
37202;BME280;37799;52.390;6.136;2024-02-26T08:48:17;100482.53;;;5.14;100.00
37202;BME280;37799;52.390;6.136;2024-02-26T08:50:43;100480.88;;;5.07;100.00
37202;BME280;37799;52.390;6.136;2024-02-26T08:53:08;100485.13;;;5.11;100.00
37202;BME280;37799;52.390;6.136;2024-02-26T08:55:33;100481.75;;;5.04;100.00
37202;BME280;37799;52.390;6.136;2024-02-26T08:57:58;100490.13;;;5.24;100.00
37202;BME280;37799;52.390;6.136;2024-02-26T09:00:24;100481.66;;;5.16;100.00
37202;BME280;37799;52.390;6.136;2024-02-26T09:02:49;100498.59;;;5.32;100.00
37202;BME280;37799;52.390;6.136;2024-02-26T09:05:14;100501.06;;;5.43;100.00
37202;BME280;37799;52.390;6.136;2024-02-26T09:07:40;100507.19;;;5.30;100.00
37202;BME280;37799;52.390;6.136;2024-02-26T09:10:05;100505.59;;;5.17;100.00
37202;BME280;37799;52.390;6.136;2024-02-26T09:12:33;100504.59;;;5.31;100.00
37202;BME280;37799;52.390;6.136;2024-02-26T09:14:58;100497.81;;;5.27;100.00
37202;BME280;37799;52.390;6.136;2024-02-26T09:17:24;100516.69;;;5.23;100.00
37202;BME280;37799;52.390;6.136;2024-02-26T09:19:49;100503.84;;;5.20;100.00
37202;BME280;37799;52.390;6.136;2024-02-26T09:22:14;100516.59;;;5.34;100.00
37202;BME280;37799;52.390;6.136;2024-02-26T09:24:40;100522.47;;;5.44;100.00
37202;BME280;37799;52.390;6.136;2024-02-26T09:27:05;100532.75;;;5.41;100.00
37202;BME280;37799;52.390;6.136;2024-02-26T09:29:30;100542.19;;;5.40;100.00
37202;BME280;37799;52.390;6.136;2024-02-26T09:31:56;100537.97;;;5.31;100.00
37202;BME280;37799;52.390;6.136;2024-02-26T09:34:21;100535.41;;;5.31;100.00
37202;BME280;37799;52.390;6.136;2024-02-26T09:36:46;100531.06;;;5.40;100.00
37202;BME280;37799;52.390;6.136;2024-02-26T09:39:11;100540.53;;;5.35;100.00
37202;BME280;37799;52.390;6.136;2024-02-26T09:41:37;100530.91;;;5.55;100.00
37202;BME280;37799;52.390;6.136;2024-02-26T09:44:04;100541.25;;;5.46;100.00
37202;BME280;37799;52.390;6.136;2024-02-26T09:46:30;100552.41;;;5.45;100.00
37202;BME280;37799;52.390;6.136;2024-02-26T09:48:57;100561.84;;;5.43;100.00
37202;BME280;37799;52.390;6.136;2024-02-26T09:51:25;100564.38;;;5.44;100.00
37202;BME280;37799;52.390;6.136;2024-02-26T09:53:54;100568.66;;;5.48;100.00
37202;BME280;37799;52.390;6.136;2024-02-26T09:56:21;100572.91;;;5.49;100.00
37202;BME280;37799;52.390;6.136;2024-02-26T09:58:46;100571.06;;;5.63;100.00
37202;BME280;37799;52.390;6.136;2024-02-26T10:01:18;100575.41;;;5.57;100.00
37202;BME280;37799;52.390;6.136;2024-02-26T10:03:43;100570.28;;;5.55;100.00
37202;BME280;37799;52.390;6.136;2024-02-26T10:06:10;100577.91;;;5.65;100.00
37202;BME280;37799;52.390;6.136;2024-02-26T10:08:36;100590.78;;;5.63;100.00
37202;BME280;37799;52.390;6.136;2024-02-26T10:11:04;100586.44;;;5.67;100.00
37202;BME280;37799;52.390;6.136;2024-02-26T10:13:29;100595.81;;;5.71;100.00
37202;BME280;37799;52.390;6.136;2024-02-26T10:15:55;100606.94;;;5.71;100.00
37202;BME280;37799;52.390;6.136;2024-02-26T10:18:22;100606.03;;;5.78;100.00
37202;BME280;37799;52.390;6.136;2024-02-26T10:21:01;100602.59;;;5.79;100.00
37202;BME280;37799;52.390;6.136;2024-02-26T10:23:26;100600.81;;;5.87;100.00
37202;BME280;37799;52.390;6.136;2024-02-26T10:25:53;100618.78;;;5.84;100.00
37202;BME280;37799;52.390;6.136;2024-02-26T10:28:19;100619.59;;;5.94;100.00
37202;BME280;37799;52.390;6.136;2024-02-26T10:30:45;100621.34;;;5.92;100.00
37202;BME280;37799;52.390;6.136;2024-02-26T10:33:10;100623.78;;;6.04;100.00
37202;BME280;37799;52.390;6.136;2024-02-26T10:35:36;100627.25;;;5.97;100.00
37202;BME280;37799;52.390;6.136;2024-02-26T10:38:06;100623.06;;;5.88;100.00
37202;BME280;37799;52.390;6.136;2024-02-26T10:40:32;100633.28;;;5.95;100.00
37202;BME280;37799;52.390;6.136;2024-02-26T10:42:57;100628.16;;;5.95;100.00
37202;BME280;37799;52.390;6.136;2024-02-26T10:45:23;100634.09;;;6.01;100.00
37202;BME280;37799;52.390;6.136;2024-02-26T10:47:48;100643.41;;;6.10;100.00
37202;BME280;37799;52.390;6.136;2024-02-26T10:50:14;100637.47;;;6.06;100.00
37202;BME280;37799;52.390;6.136;2024-02-26T10:52:42;100631.44;;;6.09;100.00
37202;BME280;37799;52.390;6.136;2024-02-26T10:55:08;100647.81;;;6.00;100.00
37202;BME280;37799;52.390;6.136;2024-02-26T10:57:40;100656.25;;;6.10;100.00
37202;BME280;37799;52.390;6.136;2024-02-26T11:00:06;100653.81;;;6.01;100.00
37202;BME280;37799;52.390;6.136;2024-02-26T11:02:36;100655.59;;;5.93;100.00
37202;BME280;37799;52.390;6.136;2024-02-26T11:05:02;100664.09;;;5.98;100.00
37202;BME280;37799;52.390;6.136;2024-02-26T11:07:30;100670.19;;;5.90;100.00
37202;BME280;37799;52.390;6.136;2024-02-26T11:09:56;100672.75;;;5.89;100.00
37202;BME280;37799;52.390;6.136;2024-02-26T11:12:22;100666.69;;;5.99;100.00
37202;BME280;37799;52.390;6.136;2024-02-26T11:14:49;100677.03;;;5.84;100.00
37202;BME280;37799;52.390;6.136;2024-02-26T11:17:19;100689.81;;;5.98;100.00
37202;BME280;37799;52.390;6.136;2024-02-26T11:19:44;100683.88;;;5.91;100.00
37202;BME280;37799;52.390;6.136;2024-02-26T11:22:11;100687.31;;;5.84;100.00
37202;BME280;37799;52.390;6.136;2024-02-26T11:24:36;100691.47;;;6.05;100.00
37202;BME280;37799;52.390;6.136;2024-02-26T11:27:07;100687.91;;;6.18;100.00
37202;BME280;37799;52.390;6.136;2024-02-26T11:29:38;100689.81;;;5.99;100.00
37202;BME280;37799;52.390;6.136;2024-02-26T11:32:05;100694.75;;;6.19;100.00
37202;BME280;37799;52.390;6.136;2024-02-26T11:34:31;100706.75;;;6.17;100.00
37202;BME280;37799;52.390;6.136;2024-02-26T11:36:56;100693.84;;;6.21;100.00
37202;BME280;37799;52.390;6.136;2024-02-26T11:39:22;100705.00;;;6.22;100.00
37202;BME280;37799;52.390;6.136;2024-02-26T11:41:50;100708.34;;;6.30;100.00
37202;BME280;37799;52.390;6.136;2024-02-26T11:44:28;100709.19;;;6.31;100.00
37202;BME280;37799;52.390;6.136;2024-02-26T11:46:54;100715.22;;;6.28;100.00
37202;BME280;37799;52.390;6.136;2024-02-26T11:51:56;100720.44;;;6.19;100.00
37202;BME280;37799;52.390;6.136;2024-02-26T11:57:39;100711.94;;;6.11;100.00
37202;BME280;37799;52.390;6.136;2024-02-26T12:00:14;100724.81;;;6.14;100.00
37202;BME280;37799;52.390;6.136;2024-02-26T12:05:12;100727.34;;;6.17;100.00
37202;BME280;37799;52.390;6.136;2024-02-26T12:07:40;100723.97;;;6.09;100.00
37202;BME280;37799;52.390;6.136;2024-02-26T12:12:41;100717.97;;;6.08;100.00
37202;BME280;37799;52.390;6.136;2024-02-26T12:15:08;100726.44;;;6.19;100.00
37202;BME280;37799;52.390;6.136;2024-02-26T12:17:35;100728.09;;;6.28;100.00
37202;BME280;37799;52.390;6.136;2024-02-26T12:20:09;100725.63;;;6.16;100.00
37202;BME280;37799;52.390;6.136;2024-02-26T12:22:34;100722.81;;;6.37;100.00
37202;BME280;37799;52.390;6.136;2024-02-26T12:25:02;100727.25;;;6.23;100.00
37202;BME280;37799;52.390;6.136;2024-02-26T12:27:28;100741.66;;;6.41;100.00
37202;BME280;37799;52.390;6.136;2024-02-26T12:29:53;100746.81;;;6.41;100.00
37202;BME280;37799;52.390;6.136;2024-02-26T12:32:19;100757.09;;;6.38;100.00
37202;BME280;37799;52.390;6.136;2024-02-26T12:34:44;100758.03;;;6.32;100.00
37202;BME280;37799;52.390;6.136;2024-02-26T12:37:10;100752.81;;;6.41;100.00
37202;BME280;37799;52.390;6.136;2024-02-26T12:39:37;100758.78;;;6.43;100.00
37202;BME280;37799;52.390;6.136;2024-02-26T12:42:02;100758.09;;;6.28;100.00
37202;BME280;37799;52.390;6.136;2024-02-26T12:44:28;100756.34;;;6.31;100.00
37202;BME280;37799;52.390;6.136;2024-02-26T12:47:03;100763.13;;;6.35;100.00
37202;BME280;37799;52.390;6.136;2024-02-26T12:49:29;100768.34;;;6.31;100.00
37202;BME280;37799;52.390;6.136;2024-02-26T12:51:54;100765.78;;;6.31;100.00
37202;BME280;37799;52.390;6.136;2024-02-26T12:54:26;100769.94;;;6.42;100.00